createdAt,value
2022-12-20T00:09:33.998Z,101283.53
2022-12-20T00:19:36.825Z,101250.25
2022-12-20T00:29:39.455Z,101302.88
2022-12-20T00:39:41.931Z,101262.72
2022-12-20T00:49:44.621Z,101234.00
2022-12-20T00:59:47.150Z,101229.94
2022-12-20T01:09:50.092Z,101205.28
2022-12-20T01:19:52.619Z,101206.28
2022-12-20T01:29:55.515Z,101207.13
2022-12-20T01:39:57.985Z,101241.28
2022-12-20T01:50:04.725Z,101209.81
2022-12-20T02:00:09.887Z,101207.91
2022-12-20T02:10:21.143Z,101235.38
2022-12-20T02:20:44.908Z,101219.75
2022-12-20T02:30:52.628Z,101190.09
2022-12-20T02:41:25.029Z,101208.53
2022-12-20T02:51:30.122Z,101165.63
2022-12-20T03:01:48.010Z,101173.47
2022-12-20T03:11:51.344Z,101186.13
2022-12-20T03:21:54.205Z,101175.50
2022-12-20T03:31:56.695Z,101124.13
2022-12-20T03:41:59.310Z,101143.47
2022-12-20T03:52:01.922Z,101104.13
2022-12-20T04:02:04.969Z,101099.84
2022-12-20T04:12:07.766Z,101123.28
2022-12-20T04:22:13.080Z,101081.44
2022-12-20T04:32:26.031Z,101103.19
2022-12-20T04:42:28.837Z,101081.81
2022-12-20T04:52:51.178Z,101086.19
2022-12-20T05:02:54.325Z,101087.94
2022-12-20T05:13:04.113Z,101061.69
2022-12-20T05:23:33.656Z,101094.09
2022-12-20T05:33:46.270Z,101098.56
2022-12-20T05:43:49.033Z,101067.13
2022-12-20T05:53:51.900Z,101058.16
2022-12-20T06:04:00.988Z,101098.41
2022-12-20T06:14:06.166Z,101052.16
2022-12-20T06:24:16.110Z,101047.88
2022-12-20T06:34:21.612Z,101086.44
2022-12-20T06:44:28.367Z,101013.84
2022-12-20T06:54:33.797Z,101036.66
2022-12-20T07:04:37.998Z,101064.69
2022-12-20T07:14:40.714Z,101074.28
2022-12-20T07:24:48.645Z,101067.59
2022-12-20T07:34:53.919Z,101056.78
2022-12-20T07:45:03.674Z,101043.66
2022-12-20T07:55:16.683Z,101049.09
2022-12-20T08:05:22.938Z,101034.44
2022-12-20T08:15:56.241Z,101050.00
2022-12-20T08:26:10.881Z,101077.28
2022-12-20T08:36:23.101Z,101047.56
2022-12-20T08:46:26.678Z,101011.13
2022-12-20T08:56:29.507Z,101030.31
2022-12-20T09:06:35.797Z,101046.19
2022-12-20T09:16:39.596Z,101025.28
2022-12-20T09:26:42.934Z,100997.88
2022-12-20T09:36:48.457Z,100994.84
2022-12-20T09:47:08.412Z,100992.97
2022-12-20T09:57:59.241Z,100993.28
2022-12-20T10:08:28.016Z,100962.19
2022-12-20T10:18:40.063Z,100972.53
2022-12-20T10:28:45.175Z,100921.03
2022-12-20T10:38:52.587Z,100945.69
2022-12-20T10:48:55.396Z,100909.97
2022-12-20T10:59:00.899Z,100937.88
2022-12-20T11:09:23.224Z,100888.94
2022-12-20T11:19:49.709Z,100853.47
2022-12-20T11:30:19.046Z,100904.22
2022-12-20T11:40:37.099Z,100847.47
2022-12-20T11:51:16.130Z,100875.31
2022-12-20T12:01:31.496Z,100838.00
2022-12-20T12:22:23.126Z,100814.59
2022-12-20T12:32:51.829Z,100830.25
2022-12-20T12:43:22.073Z,100825.91
2022-12-20T12:53:35.528Z,100804.94
2022-12-20T13:03:54.139Z,100820.63
2022-12-20T13:14:34.703Z,100794.59
2022-12-20T13:24:57.492Z,100795.38
2022-12-20T13:35:02.179Z,100751.03
2022-12-20T13:45:12.594Z,100750.47
2022-12-20T13:55:24.891Z,100780.69
2022-12-20T14:05:38.033Z,100720.66
2022-12-20T14:15:40.817Z,100753.72
2022-12-20T14:25:57.106Z,100755.56
2022-12-20T14:36:16.389Z,100755.78
2022-12-20T14:46:22.702Z,100720.00
2022-12-20T14:56:32.222Z,100755.72
2022-12-20T15:06:37.936Z,100756.66
2022-12-20T15:16:48.398Z,100749.69
2022-12-20T15:26:50.955Z,100685.31
2022-12-20T15:36:53.560Z,100686.13
2022-12-20T15:46:56.288Z,100714.91
2022-12-20T15:57:04.421Z,100679.31
2022-12-20T16:07:12.564Z,100714.19
2022-12-20T16:17:16.555Z,100690.56
2022-12-20T16:27:20.418Z,100684.50
2022-12-20T16:37:23.429Z,100687.19
2022-12-20T16:47:27.124Z,100705.34
2022-12-20T16:57:32.972Z,100667.19
2022-12-20T17:07:41.474Z,100695.97
2022-12-20T17:17:44.432Z,100675.13
2022-12-20T17:27:47.509Z,100701.28
2022-12-20T17:37:52.353Z,100637.72
2022-12-20T17:47:56.911Z,100636.88
2022-12-20T17:57:59.508Z,100663.94
2022-12-20T18:08:02.265Z,100629.03
2022-12-20T18:18:05.284Z,100670.94
2022-12-20T18:28:08.715Z,100644.81
2022-12-20T18:38:11.393Z,100616.00
2022-12-20T18:48:14.896Z,100633.41
2022-12-20T18:58:17.753Z,100628.31
2022-12-20T19:08:21.410Z,100625.78
2022-12-20T19:18:24.505Z,100606.66
2022-12-20T19:28:28.251Z,100617.16
2022-12-20T19:38:30.973Z,100605.88
2022-12-20T19:48:34.611Z,100585.00
2022-12-20T19:58:38.027Z,100575.41
2022-12-20T20:08:41.690Z,100589.38
2022-12-20T20:18:46.209Z,100581.63
2022-12-20T20:28:48.827Z,100560.75
2022-12-20T20:38:52.506Z,100495.56
2022-12-20T20:48:55.461Z,100502.50
2022-12-20T20:59:04.939Z,100539.00
2022-12-20T21:09:09.452Z,100484.28
2022-12-20T21:19:12.715Z,100479.91
2022-12-20T21:29:15.202Z,100479.97
2022-12-20T21:39:18.198Z,100465.22
2022-12-20T21:49:20.672Z,100438.28
2022-12-20T21:59:23.421Z,100420.97
2022-12-20T22:09:26.011Z,100420.97
2022-12-20T22:19:28.658Z,100408.88
2022-12-20T22:29:31.279Z,100417.56
2022-12-20T22:39:33.811Z,100408.03
2022-12-20T22:49:36.545Z,100434.09
2022-12-20T22:59:39.029Z,100424.56
2022-12-20T23:09:41.478Z,100395.91
2022-12-20T23:20:02.704Z,100403.75
2022-12-20T23:30:09.534Z,100348.19
2022-12-20T23:40:13.333Z,100334.31
2022-12-20T23:50:15.918Z,100346.44
